sensor_id;sensor_type;location;lat;lon;timestamp;P1;durP1;ratioP1;P2;durP2;ratioP2
59169;SDS011;52474;52.236;5.114;2023-12-14T00:00:20;20.77;;;10.63;;
59169;SDS011;52474;52.236;5.114;2023-12-14T00:02:46;19.35;;;10.18;;
59169;SDS011;52474;52.236;5.114;2023-12-14T00:05:12;22.15;;;11.48;;
59169;SDS011;52474;52.236;5.114;2023-12-14T00:07:37;23.88;;;11.52;;
59169;SDS011;52474;52.236;5.114;2023-12-14T00:10:03;19.92;;;10.75;;
59169;SDS011;52474;52.236;5.114;2023-12-14T00:12:30;22.10;;;10.90;;
59169;SDS011;52474;52.236;5.114;2023-12-14T00:14:56;25.73;;;11.88;;
59169;SDS011;52474;52.236;5.114;2023-12-14T00:17:22;24.38;;;11.48;;
59169;SDS011;52474;52.236;5.114;2023-12-14T00:19:48;24.33;;;10.93;;
59169;SDS011;52474;52.236;5.114;2023-12-14T00:22:13;19.10;;;10.35;;
59169;SDS011;52474;52.236;5.114;2023-12-14T00:24:39;22.13;;;10.98;;
59169;SDS011;52474;52.236;5.114;2023-12-14T00:27:04;23.25;;;10.82;;
59169;SDS011;52474;52.236;5.114;2023-12-14T00:29:30;20.52;;;10.73;;
59169;SDS011;52474;52.236;5.114;2023-12-14T00:31:55;20.88;;;10.73;;
59169;SDS011;52474;52.236;5.114;2023-12-14T00:34:21;23.02;;;11.15;;
59169;SDS011;52474;52.236;5.114;2023-12-14T00:36:47;17.83;;;10.02;;
59169;SDS011;52474;52.236;5.114;2023-12-14T00:39:12;23.10;;;10.90;;
59169;SDS011;52474;52.236;5.114;2023-12-14T00:41:38;18.08;;;9.45;;
59169;SDS011;52474;52.236;5.114;2023-12-14T00:44:04;21.13;;;10.70;;
59169;SDS011;52474;52.236;5.114;2023-12-14T00:46:29;17.27;;;9.77;;
59169;SDS011;52474;52.236;5.114;2023-12-14T00:48:55;19.00;;;10.07;;
59169;SDS011;52474;52.236;5.114;2023-12-14T00:51:20;20.02;;;9.90;;
59169;SDS011;52474;52.236;5.114;2023-12-14T00:53:46;23.50;;;10.23;;
59169;SDS011;52474;52.236;5.114;2023-12-14T00:56:12;20.65;;;9.93;;
59169;SDS011;52474;52.236;5.114;2023-12-14T00:58:37;21.73;;;11.00;;
59169;SDS011;52474;52.236;5.114;2023-12-14T01:01:03;21.70;;;10.82;;
59169;SDS011;52474;52.236;5.114;2023-12-14T01:03:29;21.05;;;10.70;;
59169;SDS011;52474;52.236;5.114;2023-12-14T01:05:54;20.52;;;11.13;;
59169;SDS011;52474;52.236;5.114;2023-12-14T01:08:20;21.40;;;10.98;;
59169;SDS011;52474;52.236;5.114;2023-12-14T01:10:46;22.88;;;10.93;;
59169;SDS011;52474;52.236;5.114;2023-12-14T01:13:11;20.65;;;10.50;;
59169;SDS011;52474;52.236;5.114;2023-12-14T01:15:37;25.60;;;10.85;;
59169;SDS011;52474;52.236;5.114;2023-12-14T01:18:02;25.40;;;10.48;;
59169;SDS011;52474;52.236;5.114;2023-12-14T01:20:28;24.63;;;11.15;;
59169;SDS011;52474;52.236;5.114;2023-12-14T01:22:54;21.75;;;11.05;;
59169;SDS011;52474;52.236;5.114;2023-12-14T01:25:20;17.67;;;10.05;;
59169;SDS011;52474;52.236;5.114;2023-12-14T01:27:45;22.55;;;11.30;;
59169;SDS011;52474;52.236;5.114;2023-12-14T01:30:11;24.85;;;12.02;;
59169;SDS011;52474;52.236;5.114;2023-12-14T01:32:37;25.92;;;12.13;;
59169;SDS011;52474;52.236;5.114;2023-12-14T01:35:03;23.38;;;11.52;;
59169;SDS011;52474;52.236;5.114;2023-12-14T01:37:29;22.25;;;11.68;;
59169;SDS011;52474;52.236;5.114;2023-12-14T01:39:55;22.58;;;10.88;;
59169;SDS011;52474;52.236;5.114;2023-12-14T01:42:20;28.90;;;11.82;;
59169;SDS011;52474;52.236;5.114;2023-12-14T01:44:46;26.08;;;11.43;;
59169;SDS011;52474;52.236;5.114;2023-12-14T01:47:12;22.60;;;11.85;;
59169;SDS011;52474;52.236;5.114;2023-12-14T01:49:37;26.60;;;12.63;;
59169;SDS011;52474;52.236;5.114;2023-12-14T01:52:03;24.77;;;12.43;;
59169;SDS011;52474;52.236;5.114;2023-12-14T01:54:29;25.40;;;12.40;;
59169;SDS011;52474;52.236;5.114;2023-12-14T01:56:54;25.23;;;12.20;;
59169;SDS011;52474;52.236;5.114;2023-12-14T01:59:20;29.13;;;13.07;;
59169;SDS011;52474;52.236;5.114;2023-12-14T02:01:46;21.45;;;11.20;;
59169;SDS011;52474;52.236;5.114;2023-12-14T02:04:17;26.73;;;12.23;;
59169;SDS011;52474;52.236;5.114;2023-12-14T02:06:43;25.63;;;13.57;;
59169;SDS011;52474;52.236;5.114;2023-12-14T02:09:09;25.33;;;12.80;;
59169;SDS011;52474;52.236;5.114;2023-12-14T02:11:35;28.10;;;12.82;;
59169;SDS011;52474;52.236;5.114;2023-12-14T02:14:21;24.42;;;11.27;;
59169;SDS011;52474;52.236;5.114;2023-12-14T02:16:47;26.70;;;11.70;;
59169;SDS011;52474;52.236;5.114;2023-12-14T02:19:12;28.65;;;11.27;;
59169;SDS011;52474;52.236;5.114;2023-12-14T02:21:38;26.92;;;12.10;;
59169;SDS011;52474;52.236;5.114;2023-12-14T02:24:03;27.10;;;11.95;;
59169;SDS011;52474;52.236;5.114;2023-12-14T02:26:29;23.95;;;11.90;;
59169;SDS011;52474;52.236;5.114;2023-12-14T02:28:55;32.90;;;13.25;;
59169;SDS011;52474;52.236;5.114;2023-12-14T02:31:20;28.55;;;13.50;;
59169;SDS011;52474;52.236;5.114;2023-12-14T02:33:46;25.15;;;12.32;;
59169;SDS011;52474;52.236;5.114;2023-12-14T02:36:12;27.52;;;12.05;;
59169;SDS011;52474;52.236;5.114;2023-12-14T02:38:37;26.05;;;12.63;;
59169;SDS011;52474;52.236;5.114;2023-12-14T02:41:03;27.27;;;12.48;;
59169;SDS011;52474;52.236;5.114;2023-12-14T02:43:29;25.92;;;12.30;;
59169;SDS011;52474;52.236;5.114;2023-12-14T02:45:54;27.00;;;12.10;;
59169;SDS011;52474;52.236;5.114;2023-12-14T02:48:26;27.55;;;12.10;;
59169;SDS011;52474;52.236;5.114;2023-12-14T02:50:52;22.50;;;11.18;;
59169;SDS011;52474;52.236;5.114;2023-12-14T02:53:17;24.25;;;10.23;;
59169;SDS011;52474;52.236;5.114;2023-12-14T02:55:43;26.88;;;10.25;;
59169;SDS011;52474;52.236;5.114;2023-12-14T02:58:08;22.73;;;10.68;;
59169;SDS011;52474;52.236;5.114;2023-12-14T03:00:34;23.70;;;9.98;;
59169;SDS011;52474;52.236;5.114;2023-12-14T03:03:00;20.70;;;10.52;;
59169;SDS011;52474;52.236;5.114;2023-12-14T03:05:25;21.33;;;10.00;;
59169;SDS011;52474;52.236;5.114;2023-12-14T03:07:51;18.52;;;8.50;;
59169;SDS011;52474;52.236;5.114;2023-12-14T03:10:17;18.48;;;9.30;;
59169;SDS011;52474;52.236;5.114;2023-12-14T03:12:42;20.88;;;9.63;;
59169;SDS011;52474;52.236;5.114;2023-12-14T03:15:08;20.13;;;9.43;;
59169;SDS011;52474;52.236;5.114;2023-12-14T03:17:34;17.02;;;8.63;;
59169;SDS011;52474;52.236;5.114;2023-12-14T03:19:59;15.98;;;8.48;;
59169;SDS011;52474;52.236;5.114;2023-12-14T03:22:25;17.15;;;7.82;;
59169;SDS011;52474;52.236;5.114;2023-12-14T03:24:51;19.77;;;8.65;;
59169;SDS011;52474;52.236;5.114;2023-12-14T03:27:16;20.55;;;8.82;;
59169;SDS011;52474;52.236;5.114;2023-12-14T03:29:42;18.27;;;8.35;;
59169;SDS011;52474;52.236;5.114;2023-12-14T03:32:07;16.55;;;8.15;;
59169;SDS011;52474;52.236;5.114;2023-12-14T03:34:33;17.75;;;8.40;;
59169;SDS011;52474;52.236;5.114;2023-12-14T03:36:59;20.65;;;8.93;;
59169;SDS011;52474;52.236;5.114;2023-12-14T03:39:24;19.20;;;8.65;;
59169;SDS011;52474;52.236;5.114;2023-12-14T03:41:50;20.77;;;7.82;;
59169;SDS011;52474;52.236;5.114;2023-12-14T03:44:15;15.90;;;7.32;;
59169;SDS011;52474;52.236;5.114;2023-12-14T03:46:41;16.15;;;8.05;;
59169;SDS011;52474;52.236;5.114;2023-12-14T03:49:07;14.45;;;7.90;;
59169;SDS011;52474;52.236;5.114;2023-12-14T03:51:34;13.77;;;7.18;;
59169;SDS011;52474;52.236;5.114;2023-12-14T03:53:59;16.92;;;7.40;;
59169;SDS011;52474;52.236;5.114;2023-12-14T03:56:25;19.77;;;8.02;;
59169;SDS011;52474;52.236;5.114;2023-12-14T03:58:51;15.02;;;7.03;;
59169;SDS011;52474;52.236;5.114;2023-12-14T04:01:17;14.40;;;7.00;;
59169;SDS011;52474;52.236;5.114;2023-12-14T04:03:44;17.52;;;7.50;;
59169;SDS011;52474;52.236;5.114;2023-12-14T04:06:10;17.83;;;7.30;;
59169;SDS011;52474;52.236;5.114;2023-12-14T04:08:37;13.18;;;6.75;;
59169;SDS011;52474;52.236;5.114;2023-12-14T04:11:02;14.15;;;8.10;;
59169;SDS011;52474;52.236;5.114;2023-12-14T04:13:28;11.02;;;6.60;;
59169;SDS011;52474;52.236;5.114;2023-12-14T04:15:54;18.13;;;7.60;;
59169;SDS011;52474;52.236;5.114;2023-12-14T04:18:19;15.48;;;7.65;;
59169;SDS011;52474;52.236;5.114;2023-12-14T04:20:45;14.48;;;7.30;;
59169;SDS011;52474;52.236;5.114;2023-12-14T04:23:11;13.63;;;7.47;;
59169;SDS011;52474;52.236;5.114;2023-12-14T04:25:36;15.35;;;7.25;;
59169;SDS011;52474;52.236;5.114;2023-12-14T04:28:02;15.40;;;8.43;;
59169;SDS011;52474;52.236;5.114;2023-12-14T04:30:28;14.65;;;8.02;;
59169;SDS011;52474;52.236;5.114;2023-12-14T04:32:53;14.30;;;8.38;;
59169;SDS011;52474;52.236;5.114;2023-12-14T04:35:19;14.75;;;8.27;;
59169;SDS011;52474;52.236;5.114;2023-12-14T04:37:47;14.35;;;8.00;;
59169;SDS011;52474;52.236;5.114;2023-12-14T04:40:13;15.85;;;8.57;;
59169;SDS011;52474;52.236;5.114;2023-12-14T04:42:39;15.32;;;7.97;;
59169;SDS011;52474;52.236;5.114;2023-12-14T04:45:05;13.82;;;8.07;;
59169;SDS011;52474;52.236;5.114;2023-12-14T04:47:31;14.30;;;7.63;;
59169;SDS011;52474;52.236;5.114;2023-12-14T04:49:56;17.35;;;7.88;;
59169;SDS011;52474;52.236;5.114;2023-12-14T04:52:22;14.13;;;8.20;;
59169;SDS011;52474;52.236;5.114;2023-12-14T04:54:48;15.90;;;7.82;;
59169;SDS011;52474;52.236;5.114;2023-12-14T04:57:13;12.45;;;7.15;;
59169;SDS011;52474;52.236;5.114;2023-12-14T04:59:41;11.80;;;7.45;;
59169;SDS011;52474;52.236;5.114;2023-12-14T05:02:07;14.57;;;7.50;;
59169;SDS011;52474;52.236;5.114;2023-12-14T05:04:33;11.88;;;7.18;;
59169;SDS011;52474;52.236;5.114;2023-12-14T05:06:58;13.00;;;6.82;;
59169;SDS011;52474;52.236;5.114;2023-12-14T05:09:24;11.18;;;6.40;;
59169;SDS011;52474;52.236;5.114;2023-12-14T05:11:49;10.95;;;5.72;;
59169;SDS011;52474;52.236;5.114;2023-12-14T05:14:15;12.07;;;6.88;;
59169;SDS011;52474;52.236;5.114;2023-12-14T05:16:41;11.20;;;5.80;;
59169;SDS011;52474;52.236;5.114;2023-12-14T05:19:07;10.70;;;6.25;;
59169;SDS011;52474;52.236;5.114;2023-12-14T05:21:32;10.55;;;5.72;;
59169;SDS011;52474;52.236;5.114;2023-12-14T05:23:58;9.93;;;6.88;;
59169;SDS011;52474;52.236;5.114;2023-12-14T05:26:24;12.60;;;6.55;;
59169;SDS011;52474;52.236;5.114;2023-12-14T05:28:50;13.05;;;6.65;;
59169;SDS011;52474;52.236;5.114;2023-12-14T05:31:15;10.35;;;6.32;;
59169;SDS011;52474;52.236;5.114;2023-12-14T05:39:44;15.95;;;7.90;;
59169;SDS011;52474;52.236;5.114;2023-12-14T05:42:10;14.05;;;7.22;;
59169;SDS011;52474;52.236;5.114;2023-12-14T05:44:36;13.70;;;7.45;;
59169;SDS011;52474;52.236;5.114;2023-12-14T05:47:01;15.13;;;7.85;;
59169;SDS011;52474;52.236;5.114;2023-12-14T05:49:27;12.68;;;7.70;;
59169;SDS011;52474;52.236;5.114;2023-12-14T05:51:53;15.77;;;8.70;;
59169;SDS011;52474;52.236;5.114;2023-12-14T05:54:19;17.27;;;8.93;;
59169;SDS011;52474;52.236;5.114;2023-12-14T05:56:45;17.85;;;8.60;;
59169;SDS011;52474;52.236;5.114;2023-12-14T05:59:11;17.38;;;8.95;;
59169;SDS011;52474;52.236;5.114;2023-12-14T06:01:37;16.63;;;9.52;;
59169;SDS011;52474;52.236;5.114;2023-12-14T06:04:02;15.10;;;8.82;;
59169;SDS011;52474;52.236;5.114;2023-12-14T06:06:28;16.27;;;8.95;;
59169;SDS011;52474;52.236;5.114;2023-12-14T06:08:54;16.17;;;9.00;;
59169;SDS011;52474;52.236;5.114;2023-12-14T06:11:19;14.15;;;7.97;;
59169;SDS011;52474;52.236;5.114;2023-12-14T06:13:45;14.43;;;7.18;;
59169;SDS011;52474;52.236;5.114;2023-12-14T06:16:11;12.05;;;7.32;;
59169;SDS011;52474;52.236;5.114;2023-12-14T06:18:42;11.73;;;6.80;;
59169;SDS011;52474;52.236;5.114;2023-12-14T06:21:08;16.02;;;7.75;;
59169;SDS011;52474;52.236;5.114;2023-12-14T06:23:36;13.38;;;7.20;;
59169;SDS011;52474;52.236;5.114;2023-12-14T06:26:04;13.65;;;7.65;;
59169;SDS011;52474;52.236;5.114;2023-12-14T06:28:30;13.65;;;7.43;;
59169;SDS011;52474;52.236;5.114;2023-12-14T06:30:56;12.07;;;7.45;;
59169;SDS011;52474;52.236;5.114;2023-12-14T06:33:21;13.85;;;7.53;;
59169;SDS011;52474;52.236;5.114;2023-12-14T06:35:47;12.10;;;6.50;;
59169;SDS011;52474;52.236;5.114;2023-12-14T06:38:13;15.82;;;8.13;;
59169;SDS011;52474;52.236;5.114;2023-12-14T06:40:38;14.68;;;6.93;;
59169;SDS011;52474;52.236;5.114;2023-12-14T06:43:04;12.88;;;7.72;;
59169;SDS011;52474;52.236;5.114;2023-12-14T06:45:36;12.23;;;7.30;;
59169;SDS011;52474;52.236;5.114;2023-12-14T06:48:02;10.65;;;6.95;;
59169;SDS011;52474;52.236;5.114;2023-12-14T06:50:28;11.52;;;7.18;;
59169;SDS011;52474;52.236;5.114;2023-12-14T06:52:54;13.95;;;7.45;;
59169;SDS011;52474;52.236;5.114;2023-12-14T06:55:19;14.38;;;7.80;;
59169;SDS011;52474;52.236;5.114;2023-12-14T06:57:45;13.85;;;7.57;;
59169;SDS011;52474;52.236;5.114;2023-12-14T07:00:13;15.10;;;7.85;;
59169;SDS011;52474;52.236;5.114;2023-12-14T07:02:40;13.70;;;7.78;;
59169;SDS011;52474;52.236;5.114;2023-12-14T07:05:05;14.32;;;7.63;;
59169;SDS011;52474;52.236;5.114;2023-12-14T07:07:31;14.52;;;7.78;;
59169;SDS011;52474;52.236;5.114;2023-12-14T07:09:56;11.85;;;7.10;;
59169;SDS011;52474;52.236;5.114;2023-12-14T07:12:22;13.35;;;7.90;;
59169;SDS011;52474;52.236;5.114;2023-12-14T07:14:48;15.65;;;7.80;;
59169;SDS011;52474;52.236;5.114;2023-12-14T07:17:13;15.10;;;7.72;;
59169;SDS011;52474;52.236;5.114;2023-12-14T07:19:39;12.15;;;7.95;;
59169;SDS011;52474;52.236;5.114;2023-12-14T07:22:05;13.60;;;7.20;;
59169;SDS011;52474;52.236;5.114;2023-12-14T07:24:30;12.63;;;7.72;;
59169;SDS011;52474;52.236;5.114;2023-12-14T07:26:56;14.05;;;7.63;;
59169;SDS011;52474;52.236;5.114;2023-12-14T07:29:21;14.98;;;8.05;;
59169;SDS011;52474;52.236;5.114;2023-12-14T07:31:47;16.88;;;8.02;;
59169;SDS011;52474;52.236;5.114;2023-12-14T07:34:13;14.15;;;8.18;;
59169;SDS011;52474;52.236;5.114;2023-12-14T07:36:38;16.20;;;8.15;;
59169;SDS011;52474;52.236;5.114;2023-12-14T07:39:04;17.02;;;8.88;;
59169;SDS011;52474;52.236;5.114;2023-12-14T07:41:31;13.50;;;7.88;;
59169;SDS011;52474;52.236;5.114;2023-12-14T07:43:57;14.50;;;8.52;;
59169;SDS011;52474;52.236;5.114;2023-12-14T07:46:23;15.55;;;8.63;;
59169;SDS011;52474;52.236;5.114;2023-12-14T07:48:49;15.02;;;8.27;;
59169;SDS011;52474;52.236;5.114;2023-12-14T07:51:15;16.25;;;8.32;;
59169;SDS011;52474;52.236;5.114;2023-12-14T07:53:41;14.80;;;8.00;;
59169;SDS011;52474;52.236;5.114;2023-12-14T07:56:08;17.55;;;8.77;;
59169;SDS011;52474;52.236;5.114;2023-12-14T07:58:33;15.40;;;8.32;;
59169;SDS011;52474;52.236;5.114;2023-12-14T08:00:59;13.88;;;7.65;;
59169;SDS011;52474;52.236;5.114;2023-12-14T08:03:25;12.60;;;7.85;;
59169;SDS011;52474;52.236;5.114;2023-12-14T08:05:50;12.18;;;7.57;;
59169;SDS011;52474;52.236;5.114;2023-12-14T08:08:16;13.40;;;8.10;;
59169;SDS011;52474;52.236;5.114;2023-12-14T08:10:42;13.63;;;7.80;;
59169;SDS011;52474;52.236;5.114;2023-12-14T08:13:08;13.63;;;7.75;;
59169;SDS011;52474;52.236;5.114;2023-12-14T08:15:33;11.25;;;7.40;;
59169;SDS011;52474;52.236;5.114;2023-12-14T08:18:02;12.48;;;6.85;;
59169;SDS011;52474;52.236;5.114;2023-12-14T08:20:28;12.70;;;7.07;;
59169;SDS011;52474;52.236;5.114;2023-12-14T08:22:53;12.73;;;7.55;;
59169;SDS011;52474;52.236;5.114;2023-12-14T08:25:19;15.32;;;7.53;;
59169;SDS011;52474;52.236;5.114;2023-12-14T08:27:45;11.23;;;6.75;;
59169;SDS011;52474;52.236;5.114;2023-12-14T08:30:10;7.60;;;5.38;;
59169;SDS011;52474;52.236;5.114;2023-12-14T08:32:37;10.93;;;6.20;;
59169;SDS011;52474;52.236;5.114;2023-12-14T08:35:02;11.25;;;6.68;;
59169;SDS011;52474;52.236;5.114;2023-12-14T08:37:28;9.27;;;5.90;;
59169;SDS011;52474;52.236;5.114;2023-12-14T08:39:54;10.63;;;6.22;;
59169;SDS011;52474;52.236;5.114;2023-12-14T08:42:20;13.15;;;6.50;;
59169;SDS011;52474;52.236;5.114;2023-12-14T08:44:46;11.10;;;6.60;;
59169;SDS011;52474;52.236;5.114;2023-12-14T08:47:12;10.23;;;5.88;;
59169;SDS011;52474;52.236;5.114;2023-12-14T08:49:37;10.82;;;7.00;;
59169;SDS011;52474;52.236;5.114;2023-12-14T08:52:03;10.90;;;6.63;;
59169;SDS011;52474;52.236;5.114;2023-12-14T08:54:32;12.52;;;6.90;;
59169;SDS011;52474;52.236;5.114;2023-12-14T08:56:57;11.25;;;7.03;;
59169;SDS011;52474;52.236;5.114;2023-12-14T08:59:23;8.38;;;5.30;;
59169;SDS011;52474;52.236;5.114;2023-12-14T09:01:49;10.82;;;6.53;;
59169;SDS011;52474;52.236;5.114;2023-12-14T09:04:15;10.85;;;6.25;;
59169;SDS011;52474;52.236;5.114;2023-12-14T09:06:40;11.00;;;7.13;;
59169;SDS011;52474;52.236;5.114;2023-12-14T09:09:10;10.88;;;6.90;;
59169;SDS011;52474;52.236;5.114;2023-12-14T09:11:36;13.45;;;7.70;;
59169;SDS011;52474;52.236;5.114;2023-12-14T09:14:02;8.35;;;5.97;;
59169;SDS011;52474;52.236;5.114;2023-12-14T09:16:28;10.73;;;5.93;;
59169;SDS011;52474;52.236;5.114;2023-12-14T09:18:53;8.25;;;5.03;;
59169;SDS011;52474;52.236;5.114;2023-12-14T09:21:19;9.13;;;5.43;;
59169;SDS011;52474;52.236;5.114;2023-12-14T09:23:45;9.95;;;5.55;;
59169;SDS011;52474;52.236;5.114;2023-12-14T09:26:10;9.52;;;5.38;;
59169;SDS011;52474;52.236;5.114;2023-12-14T09:28:36;11.50;;;6.20;;
59169;SDS011;52474;52.236;5.114;2023-12-14T09:31:02;11.93;;;5.70;;
59169;SDS011;52474;52.236;5.114;2023-12-14T09:33:28;8.63;;;5.03;;
59169;SDS011;52474;52.236;5.114;2023-12-14T09:35:54;8.98;;;5.38;;
59169;SDS011;52474;52.236;5.114;2023-12-14T09:38:20;9.77;;;5.25;;
59169;SDS011;52474;52.236;5.114;2023-12-14T09:40:46;10.65;;;5.97;;
59169;SDS011;52474;52.236;5.114;2023-12-14T09:43:12;9.40;;;5.35;;
59169;SDS011;52474;52.236;5.114;2023-12-14T09:45:39;9.55;;;6.10;;
59169;SDS011;52474;52.236;5.114;2023-12-14T09:48:07;11.45;;;6.05;;
59169;SDS011;52474;52.236;5.114;2023-12-14T09:50:35;10.10;;;5.72;;
59169;SDS011;52474;52.236;5.114;2023-12-14T09:53:05;11.85;;;6.43;;
59169;SDS011;52474;52.236;5.114;2023-12-14T09:55:31;10.73;;;5.95;;
59169;SDS011;52474;52.236;5.114;2023-12-14T09:57:56;11.50;;;6.10;;
59169;SDS011;52474;52.236;5.114;2023-12-14T10:00:35;9.02;;;5.80;;
59169;SDS011;52474;52.236;5.114;2023-12-14T10:03:18;9.20;;;6.10;;
59169;SDS011;52474;52.236;5.114;2023-12-14T10:05:46;9.38;;;5.35;;
59169;SDS011;52474;52.236;5.114;2023-12-14T10:08:12;10.38;;;5.25;;
59169;SDS011;52474;52.236;5.114;2023-12-14T10:10:37;8.07;;;4.93;;
59169;SDS011;52474;52.236;5.114;2023-12-14T10:13:04;11.30;;;5.72;;
59169;SDS011;52474;52.236;5.114;2023-12-14T10:15:29;9.98;;;5.20;;
59169;SDS011;52474;52.236;5.114;2023-12-14T10:18:06;8.90;;;5.70;;
59169;SDS011;52474;52.236;5.114;2023-12-14T10:20:32;9.63;;;5.68;;
59169;SDS011;52474;52.236;5.114;2023-12-14T10:22:57;11.13;;;6.03;;
59169;SDS011;52474;52.236;5.114;2023-12-14T10:25:23;9.05;;;5.38;;
59169;SDS011;52474;52.236;5.114;2023-12-14T10:27:51;8.95;;;5.63;;
59169;SDS011;52474;52.236;5.114;2023-12-14T10:30:18;8.57;;;5.73;;
59169;SDS011;52474;52.236;5.114;2023-12-14T10:32:47;12.95;;;7.13;;
59169;SDS011;52474;52.236;5.114;2023-12-14T10:35:17;9.50;;;5.63;;
59169;SDS011;52474;52.236;5.114;2023-12-14T10:37:44;11.35;;;6.38;;
59169;SDS011;52474;52.236;5.114;2023-12-14T10:40:13;8.40;;;4.70;;
59169;SDS011;52474;52.236;5.114;2023-12-14T10:42:41;9.07;;;5.30;;
59169;SDS011;52474;52.236;5.114;2023-12-14T10:45:10;9.43;;;5.38;;
59169;SDS011;52474;52.236;5.114;2023-12-14T10:47:39;7.60;;;4.50;;
59169;SDS011;52474;52.236;5.114;2023-12-14T10:50:10;11.48;;;5.43;;
59169;SDS011;52474;52.236;5.114;2023-12-14T10:52:39;9.80;;;5.35;;
59169;SDS011;52474;52.236;5.114;2023-12-14T10:55:18;8.80;;;4.53;;
59169;SDS011;52474;52.236;5.114;2023-12-14T10:57:53;7.65;;;4.60;;
59169;SDS011;52474;52.236;5.114;2023-12-14T11:00:19;4.82;;;3.97;;
59169;SDS011;52474;52.236;5.114;2023-12-14T11:02:45;101.53;;;10.27;;
59169;SDS011;52474;52.236;5.114;2023-12-14T11:05:12;13.77;;;5.00;;
59169;SDS011;52474;52.236;5.114;2023-12-14T11:07:51;9.90;;;5.13;;
59169;SDS011;52474;52.236;5.114;2023-12-14T11:10:21;8.63;;;4.75;;
59169;SDS011;52474;52.236;5.114;2023-12-14T11:13:03;340.88;;;23.75;;
59169;SDS011;52474;52.236;5.114;2023-12-14T11:15:35;136.48;;;10.68;;
59169;SDS011;52474;52.236;5.114;2023-12-14T11:23:10;18.90;;;5.82;;
59169;SDS011;52474;52.236;5.114;2023-12-14T11:25:40;53.97;;;6.03;;
59169;SDS011;52474;52.236;5.114;2023-12-14T11:28:06;118.15;;;12.48;;
59169;SDS011;52474;52.236;5.114;2023-12-14T11:30:33;53.47;;;6.63;;
59169;SDS011;52474;52.236;5.114;2023-12-14T11:33:00;10.02;;;5.03;;
59169;SDS011;52474;52.236;5.114;2023-12-14T11:35:26;6.15;;;4.40;;
59169;SDS011;52474;52.236;5.114;2023-12-14T11:37:51;6.75;;;4.85;;
59169;SDS011;52474;52.236;5.114;2023-12-14T11:40:18;6.88;;;4.70;;
59169;SDS011;52474;52.236;5.114;2023-12-14T11:43:00;5.22;;;4.50;;
59169;SDS011;52474;52.236;5.114;2023-12-14T11:45:32;6.15;;;4.35;;
59169;SDS011;52474;52.236;5.114;2023-12-14T11:47:57;6.63;;;4.55;;
59169;SDS011;52474;52.236;5.114;2023-12-14T11:50:23;5.60;;;4.50;;
59169;SDS011;52474;52.236;5.114;2023-12-14T11:52:49;8.00;;;5.22;;
59169;SDS011;52474;52.236;5.114;2023-12-14T11:55:14;6.95;;;5.35;;
59169;SDS011;52474;52.236;5.114;2023-12-14T11:57:47;9.73;;;5.97;;
59169;SDS011;52474;52.236;5.114;2023-12-14T12:32:46;15.18;;;9.32;;
59169;SDS011;52474;52.236;5.114;2023-12-14T12:35:12;12.45;;;7.78;;
59169;SDS011;52474;52.236;5.114;2023-12-14T12:37:38;12.45;;;8.05;;
59169;SDS011;52474;52.236;5.114;2023-12-14T12:40:05;12.88;;;7.88;;
59169;SDS011;52474;52.236;5.114;2023-12-14T12:42:32;15.50;;;8.15;;
59169;SDS011;52474;52.236;5.114;2023-12-14T12:44:57;16.10;;;8.18;;
59169;SDS011;52474;52.236;5.114;2023-12-14T12:47:23;12.73;;;7.95;;
59169;SDS011;52474;52.236;5.114;2023-12-14T12:49:49;12.45;;;7.97;;
59169;SDS011;52474;52.236;5.114;2023-12-14T12:52:14;12.43;;;7.78;;
59169;SDS011;52474;52.236;5.114;2023-12-14T12:54:40;13.02;;;7.90;;
59169;SDS011;52474;52.236;5.114;2023-12-14T12:57:06;12.98;;;8.13;;
59169;SDS011;52474;52.236;5.114;2023-12-14T12:59:31;13.05;;;7.65;;
59169;SDS011;52474;52.236;5.114;2023-12-14T13:01:57;15.85;;;8.45;;
59169;SDS011;52474;52.236;5.114;2023-12-14T13:04:23;12.50;;;7.68;;
59169;SDS011;52474;52.236;5.114;2023-12-14T13:06:49;14.80;;;7.80;;
59169;SDS011;52474;52.236;5.114;2023-12-14T13:09:18;13.27;;;7.85;;
59169;SDS011;52474;52.236;5.114;2023-12-14T13:14:11;16.00;;;7.68;;
59169;SDS011;52474;52.236;5.114;2023-12-14T13:16:37;15.52;;;8.13;;
59169;SDS011;52474;52.236;5.114;2023-12-14T13:19:04;13.45;;;7.47;;
59169;SDS011;52474;52.236;5.114;2023-12-14T13:21:34;14.75;;;8.25;;
59169;SDS011;52474;52.236;5.114;2023-12-14T13:24:00;16.27;;;8.40;;
59169;SDS011;52474;52.236;5.114;2023-12-14T13:26:27;15.32;;;8.60;;
59169;SDS011;52474;52.236;5.114;2023-12-14T13:28:53;13.68;;;8.00;;
59169;SDS011;52474;52.236;5.114;2023-12-14T13:31:18;14.77;;;8.15;;
59169;SDS011;52474;52.236;5.114;2023-12-14T13:33:48;11.18;;;7.47;;
59169;SDS011;52474;52.236;5.114;2023-12-14T13:36:15;16.48;;;8.63;;
59169;SDS011;52474;52.236;5.114;2023-12-14T13:38:41;14.48;;;8.55;;
59169;SDS011;52474;52.236;5.114;2023-12-14T13:41:08;13.85;;;8.45;;
59169;SDS011;52474;52.236;5.114;2023-12-14T13:43:34;12.75;;;7.47;;
59169;SDS011;52474;52.236;5.114;2023-12-14T13:45:59;14.15;;;8.07;;
59169;SDS011;52474;52.236;5.114;2023-12-14T13:48:25;13.95;;;7.93;;
59169;SDS011;52474;52.236;5.114;2023-12-14T13:50:55;15.00;;;8.10;;
59169;SDS011;52474;52.236;5.114;2023-12-14T13:53:22;15.02;;;8.27;;
59169;SDS011;52474;52.236;5.114;2023-12-14T13:55:48;14.52;;;9.00;;
59169;SDS011;52474;52.236;5.114;2023-12-14T13:58:15;20.55;;;11.30;;
59169;SDS011;52474;52.236;5.114;2023-12-14T14:00:41;17.00;;;8.55;;
59169;SDS011;52474;52.236;5.114;2023-12-14T14:03:08;14.77;;;8.38;;
59169;SDS011;52474;52.236;5.114;2023-12-14T14:05:34;14.13;;;7.70;;
59169;SDS011;52474;52.236;5.114;2023-12-14T14:08:00;16.27;;;8.02;;
59169;SDS011;52474;52.236;5.114;2023-12-14T14:10:26;15.70;;;8.43;;
59169;SDS011;52474;52.236;5.114;2023-12-14T14:12:52;15.70;;;9.10;;
59169;SDS011;52474;52.236;5.114;2023-12-14T14:15:18;16.02;;;8.50;;
59169;SDS011;52474;52.236;5.114;2023-12-14T14:17:45;13.93;;;8.20;;
59169;SDS011;52474;52.236;5.114;2023-12-14T14:20:13;16.83;;;8.32;;
59169;SDS011;52474;52.236;5.114;2023-12-14T14:22:39;15.60;;;8.25;;
59169;SDS011;52474;52.236;5.114;2023-12-14T14:25:05;13.02;;;7.80;;
59169;SDS011;52474;52.236;5.114;2023-12-14T14:27:32;14.27;;;7.68;;
59169;SDS011;52474;52.236;5.114;2023-12-14T14:29:58;15.30;;;8.43;;
59169;SDS011;52474;52.236;5.114;2023-12-14T14:32:24;16.25;;;9.20;;
59169;SDS011;52474;52.236;5.114;2023-12-14T14:34:50;16.75;;;8.73;;
59169;SDS011;52474;52.236;5.114;2023-12-14T14:37:16;17.48;;;7.95;;
59169;SDS011;52474;52.236;5.114;2023-12-14T14:39:42;16.23;;;8.10;;
59169;SDS011;52474;52.236;5.114;2023-12-14T14:42:08;13.43;;;7.90;;
59169;SDS011;52474;52.236;5.114;2023-12-14T14:44:34;17.10;;;8.30;;
59169;SDS011;52474;52.236;5.114;2023-12-14T14:47:00;16.35;;;8.55;;
59169;SDS011;52474;52.236;5.114;2023-12-14T14:49:27;17.05;;;8.48;;
59169;SDS011;52474;52.236;5.114;2023-12-14T14:51:53;18.08;;;8.43;;
59169;SDS011;52474;52.236;5.114;2023-12-14T14:54:19;14.68;;;8.45;;
59169;SDS011;52474;52.236;5.114;2023-12-14T14:56:44;16.92;;;8.75;;
59169;SDS011;52474;52.236;5.114;2023-12-14T14:59:10;15.85;;;7.90;;
59169;SDS011;52474;52.236;5.114;2023-12-14T15:01:37;17.40;;;8.43;;
59169;SDS011;52474;52.236;5.114;2023-12-14T15:04:02;18.13;;;8.60;;
59169;SDS011;52474;52.236;5.114;2023-12-14T15:06:28;14.18;;;8.00;;
59169;SDS011;52474;52.236;5.114;2023-12-14T15:08:54;17.85;;;8.68;;
59169;SDS011;52474;52.236;5.114;2023-12-14T15:11:20;16.20;;;9.02;;
59169;SDS011;52474;52.236;5.114;2023-12-14T15:13:45;15.60;;;8.32;;